Terminal Aerodrome Forecast
Issued by NWS Topeka, KS

Home | Current Version | Previous Version | Text Only | Print | Product List | Glossary On
Versions: 1 2 3 4 5 6 7 8 9 10 11 12 13 14 15 16 17 18 19 20 21 22 23
000
FTUS43 KTOP 202300
TAFTOP
TAF
KTOP 202322Z 2100/2124 18008KT P6SM FEW025 SCT200
     FM210600 19010KT 5SM BR OVC014=

USA.gov is the U.S. government's official web portal to all federal, state and local government web resources and services.